SBNT/NAT METAR and TAF weather

Enter ICAO airport designator
Station Type Date Time Source
SBNT METAR 2022/05/24 13:00 UTC NOAA

SBNT 241300Z 16010KT 9999 FEW023 SCT050 29/23 Q1015


Station Type Date Time Source
SBNT Decoded METAR 2022/05/24 13:00 UTC NOAA

Natal Aeroporto, Brazil (SBNT) 05-55S 035-15W 49M
May 24, 2022 - 09:00 AM EDT / 2022.05.24 1300 UTC
Wind: from the SSE (160 degrees) at 12 MPH (10 KT):0
Visibility: greater than 7 mile(s):0
Sky conditions: partly cloudy
Temperature: 84 F (29 C)
Dew Point: 73 F (23 C)
Relative Humidity: 70%
Pressure (altimeter): 29.97 in. Hg (1015 hPa)
ob: SBNT 241300Z 16010KT 9999 FEW023 SCT050 29/23 Q1015
cycle: 13

Station Type Date Time Source
SBNT TAF 2022/05/24 12:03 UTC NOAA

TAF TAF SBNT 240859Z 2412/2424 18008KT 9999 SCT020 TN24/2412Z TX27/2417Z PROB40
TEMPO 2412/2416 3000 SHRA BKN015 FEW025TCU
RMK PGX

Example: see airport list